createdAt,value
2022-11-16T00:01:04.266Z,99502.34
2022-11-16T00:03:31.724Z,99499.56
2022-11-16T00:05:59.277Z,99487.19
2022-11-16T00:08:29.680Z,99484.47
2022-11-16T00:11:03.313Z,99488.47
2022-11-16T00:13:32.248Z,99486.97
2022-11-16T00:15:59.397Z,99489.00
2022-11-16T00:18:26.710Z,99475.38
2022-11-16T00:20:53.627Z,99478.59
2022-11-16T00:23:20.613Z,99475.81
2022-11-16T00:25:49.322Z,99488.66
2022-11-16T00:28:17.445Z,99483.81
2022-11-16T00:30:44.355Z,99474.25
2022-11-16T00:33:15.516Z,99469.84
2022-11-16T00:35:42.276Z,99462.22
2022-11-16T00:38:09.115Z,99468.09
2022-11-16T00:40:35.943Z,99469.25
2022-11-16T00:43:04.109Z,99464.78
2022-11-16T00:45:30.944Z,99475.59
2022-11-16T00:48:00.483Z,99472.00
2022-11-16T00:50:27.695Z,99473.91
2022-11-16T00:52:54.685Z,99468.28
2022-11-16T00:55:21.615Z,99469.00
2022-11-16T00:57:48.430Z,99470.16
2022-11-16T01:00:18.381Z,99479.31
2022-11-16T01:02:45.246Z,99477.31
2022-11-16T01:05:12.439Z,99480.88
2022-11-16T01:07:40.700Z,99474.53
2022-11-16T01:10:11.444Z,99483.25
2022-11-16T01:12:38.569Z,99470.72
2022-11-16T01:15:09.149Z,99481.78
2022-11-16T01:17:39.645Z,99480.06
2022-11-16T01:20:10.718Z,99483.16
2022-11-16T01:22:39.117Z,99469.91
2022-11-16T01:25:07.420Z,99472.06
2022-11-16T01:27:34.591Z,99473.56
2022-11-16T01:30:01.636Z,99471.13
2022-11-16T01:32:28.457Z,99469.81
2022-11-16T01:34:56.722Z,99471.75
2022-11-16T01:37:23.584Z,99477.16
2022-11-16T01:39:50.853Z,99479.09
2022-11-16T01:42:18.867Z,99488.22
2022-11-16T01:45:18.911Z,99489.94
2022-11-16T01:47:46.058Z,99491.50
2022-11-16T01:50:17.470Z,99499.69
2022-11-16T01:52:52.532Z,99490.03
2022-11-16T01:55:20.379Z,99491.28
2022-11-16T01:57:48.537Z,99497.53
2022-11-16T02:00:17.070Z,99491.78
2022-11-16T02:02:44.007Z,99487.41
2022-11-16T02:05:18.477Z,99494.16
2022-11-16T02:08:22.347Z,99506.06
2022-11-16T02:11:12.430Z,99504.75
2022-11-16T02:13:51.546Z,99502.22
2022-11-16T02:16:29.389Z,99504.00
2022-11-16T02:19:07.732Z,99506.03
2022-11-16T02:21:41.373Z,99506.03
2022-11-16T02:24:43.122Z,99506.78
2022-11-16T02:27:37.800Z,99503.13
2022-11-16T02:30:07.843Z,99492.78
2022-11-16T02:32:39.437Z,99499.22
2022-11-16T02:35:12.053Z,99492.31
2022-11-16T02:37:43.051Z,99484.03
2022-11-16T02:40:13.412Z,99487.53
2022-11-16T02:42:43.918Z,99487.47
2022-11-16T02:45:17.793Z,99500.38
2022-11-16T02:47:44.803Z,99492.06
2022-11-16T02:50:16.673Z,99501.09
2022-11-16T02:52:43.689Z,99497.78
2022-11-16T02:55:11.570Z,99493.41
2022-11-16T02:57:46.241Z,99504.47
2022-11-16T03:00:20.270Z,99500.25
2022-11-16T03:02:55.559Z,99501.56
2022-11-16T03:05:32.204Z,99501.47
2022-11-16T03:08:15.624Z,99497.44
2022-11-16T03:11:05.349Z,99497.06
2022-11-16T03:13:35.527Z,99496.09
2022-11-16T03:16:09.793Z,99492.59
2022-11-16T03:18:40.015Z,99498.34
2022-11-16T03:21:13.581Z,99500.16
2022-11-16T03:23:40.550Z,99499.97
2022-11-16T03:26:10.643Z,99492.91
2022-11-16T03:28:47.672Z,99496.41
2022-11-16T03:31:26.068Z,99489.13
2022-11-16T03:33:56.746Z,99481.56
2022-11-16T03:36:28.728Z,99492.34
2022-11-16T03:39:00.996Z,99490.28
2022-11-16T03:41:30.501Z,99492.63
2022-11-16T03:43:59.040Z,99489.19
2022-11-16T03:46:27.302Z,99493.84
2022-11-16T03:48:58.531Z,99486.13
2022-11-16T03:51:25.743Z,99492.41
2022-11-16T03:53:52.671Z,99490.88
2022-11-16T03:56:19.644Z,99486.84
2022-11-16T03:58:46.552Z,99480.72
2022-11-16T04:01:13.404Z,99477.06
2022-11-16T04:03:41.616Z,99472.56
2022-11-16T04:06:27.699Z,99466.56
2022-11-16T04:09:13.408Z,99460.53
2022-11-16T04:11:58.484Z,99466.63
2022-11-16T04:14:44.861Z,99473.72
2022-11-16T04:17:30.987Z,99470.81
2022-11-16T04:20:17.896Z,99478.19
2022-11-16T04:23:09.382Z,99473.97
2022-11-16T04:25:40.153Z,99464.03
2022-11-16T04:28:13.740Z,99468.88
2022-11-16T04:31:00.085Z,99469.47
2022-11-16T04:33:46.245Z,99471.19
2022-11-16T04:36:33.177Z,99471.44
2022-11-16T04:39:00.152Z,99470.03
2022-11-16T04:41:45.271Z,99471.00
2022-11-16T04:44:12.116Z,99471.44
2022-11-16T04:46:57.284Z,99479.16
2022-11-16T04:49:24.077Z,99476.75
2022-11-16T04:51:52.365Z,99474.53
2022-11-16T04:54:19.133Z,99473.19
2022-11-16T04:56:45.952Z,99479.00
2022-11-16T04:59:12.763Z,99478.28
2022-11-16T05:01:57.776Z,99475.16
2022-11-16T05:04:24.618Z,99474.78
2022-11-16T05:06:52.908Z,99475.34
2022-11-16T05:09:19.820Z,99480.72
2022-11-16T05:11:46.606Z,99483.69
2022-11-16T05:14:13.449Z,99485.88
2022-11-16T05:16:40.302Z,99478.56
2022-11-16T05:19:25.920Z,99477.22
2022-11-16T05:21:54.141Z,99480.97
2022-11-16T05:24:35.872Z,99471.22
2022-11-16T05:27:04.613Z,99483.75
2022-11-16T05:29:31.551Z,99479.47
2022-11-16T05:31:58.456Z,99487.34
2022-11-16T05:34:25.564Z,99486.09
2022-11-16T05:36:52.527Z,99487.34
2022-11-16T05:39:20.901Z,99493.19
2022-11-16T05:41:48.088Z,99498.38
2022-11-16T05:44:15.610Z,99496.88
2022-11-16T05:46:43.532Z,99493.47
2022-11-16T05:49:11.992Z,99488.63
2022-11-16T05:51:40.111Z,99491.13
2022-11-16T05:54:07.030Z,99494.25
2022-11-16T05:56:35.339Z,99504.66
2022-11-16T05:59:02.224Z,99495.50
2022-11-16T06:01:29.082Z,99492.03
2022-11-16T06:03:56.012Z,99498.84
2022-11-16T06:06:22.879Z,99495.97
2022-11-16T06:08:49.736Z,99503.94
2022-11-16T06:11:16.552Z,99500.81
2022-11-16T06:13:44.828Z,99497.59
2022-11-16T06:16:11.653Z,99492.19
2022-11-16T06:18:39.887Z,99501.63
2022-11-16T06:21:07.375Z,99481.69
2022-11-16T06:23:34.721Z,99483.22
2022-11-16T06:26:02.680Z,99489.06
2022-11-16T06:28:29.723Z,99492.53
2022-11-16T06:30:57.868Z,99488.59
2022-11-16T06:33:25.681Z,99488.69
2022-11-16T06:35:54.692Z,99493.22
2022-11-16T06:38:23.343Z,99484.47
2022-11-16T06:40:52.003Z,99501.38
2022-11-16T06:43:19.862Z,99504.19
2022-11-16T06:45:49.139Z,99501.38
2022-11-16T06:48:17.681Z,99507.66
2022-11-16T06:50:44.587Z,99498.06
2022-11-16T06:53:11.504Z,99501.91
2022-11-16T06:55:38.363Z,99501.22
2022-11-16T06:58:05.269Z,99499.13
2022-11-16T07:00:32.107Z,99502.34
2022-11-16T07:02:58.966Z,99502.81
2022-11-16T07:05:27.184Z,99494.00
2022-11-16T07:07:55.270Z,99493.75
2022-11-16T07:10:22.193Z,99497.44
2022-11-16T07:12:49.117Z,99506.84
2022-11-16T07:15:16.119Z,99504.97
2022-11-16T07:17:42.961Z,99510.91
2022-11-16T07:20:12.069Z,99503.75
2022-11-16T07:22:40.502Z,99512.59
2022-11-16T07:25:08.630Z,99516.66
2022-11-16T07:27:35.688Z,99519.34
2022-11-16T07:30:02.594Z,99529.84
2022-11-16T07:32:30.321Z,99526.09
2022-11-16T07:34:59.274Z,99519.75
2022-11-16T07:37:26.674Z,99516.97
2022-11-16T07:39:54.779Z,99515.53
2022-11-16T07:42:21.579Z,99515.63
2022-11-16T07:44:48.370Z,99515.16
2022-11-16T07:47:15.180Z,99510.41
2022-11-16T07:49:42.133Z,99515.00
2022-11-16T07:52:10.202Z,99521.13
2022-11-16T07:54:37.182Z,99517.88
2022-11-16T07:57:05.456Z,99524.69
2022-11-16T07:59:32.298Z,99522.75
2022-11-16T08:01:59.559Z,99522.94
2022-11-16T08:04:26.353Z,99515.13
2022-11-16T08:06:53.284Z,99519.34
2022-11-16T08:09:20.280Z,99517.50
2022-11-16T08:11:47.336Z,99510.59
2022-11-16T08:14:15.803Z,99519.00
2022-11-16T08:16:42.670Z,99516.06
2022-11-16T08:19:10.658Z,99512.53
2022-11-16T08:21:37.536Z,99513.06
2022-11-16T08:24:04.886Z,99502.28
2022-11-16T08:26:31.940Z,99507.06
2022-11-16T08:28:58.970Z,99518.09
2022-11-16T08:31:29.357Z,99517.81
2022-11-16T08:33:56.861Z,99517.63
2022-11-16T08:36:23.777Z,99516.97
2022-11-16T08:38:51.647Z,99518.69
2022-11-16T08:41:19.885Z,99511.50
2022-11-16T08:43:47.447Z,99510.47
2022-11-16T08:46:14.630Z,99509.31
2022-11-16T08:48:42.992Z,99518.09
2022-11-16T08:51:20.113Z,99514.69
2022-11-16T08:53:48.626Z,99518.94
2022-11-16T08:56:16.972Z,99519.66
2022-11-16T08:58:44.447Z,99528.41
2022-11-16T09:01:14.003Z,99532.94
2022-11-16T09:03:42.696Z,99516.47
2022-11-16T09:06:10.396Z,99521.00
2022-11-16T09:08:39.228Z,99520.38
2022-11-16T09:11:06.622Z,99508.38
2022-11-16T09:13:33.797Z,99522.22
2022-11-16T09:16:01.744Z,99529.09
2022-11-16T09:18:29.224Z,99532.38
2022-11-16T09:20:57.998Z,99528.59
2022-11-16T09:23:25.662Z,99521.59
2022-11-16T09:25:53.262Z,99517.66
2022-11-16T09:28:22.044Z,99526.75
2022-11-16T09:30:50.985Z,99531.59
2022-11-16T09:33:18.091Z,99517.66
2022-11-16T09:35:45.167Z,99522.63
2022-11-16T09:38:19.095Z,99525.13
2022-11-16T09:40:50.957Z,99518.31
2022-11-16T09:43:28.673Z,99507.22
2022-11-16T09:46:05.253Z,99514.31
2022-11-16T09:48:35.922Z,99519.28
2022-11-16T09:51:08.275Z,99520.53
2022-11-16T09:53:42.389Z,99514.59
2022-11-16T09:56:16.454Z,99513.44
2022-11-16T09:58:52.902Z,99513.94
2022-11-16T10:01:27.474Z,99503.44
2022-11-16T10:04:00.146Z,99507.66
2022-11-16T10:06:36.907Z,99510.19
2022-11-16T10:09:05.680Z,99499.00
2022-11-16T10:11:56.488Z,99506.31
2022-11-16T10:14:35.824Z,99507.06
2022-11-16T10:17:08.531Z,99501.09
2022-11-16T10:19:45.317Z,99499.56
2022-11-16T10:22:22.397Z,99501.53
2022-11-16T10:24:58.007Z,99496.50
2022-11-16T10:27:58.045Z,99492.72
2022-11-16T10:30:24.913Z,99489.63
2022-11-16T10:32:55.210Z,99491.91
2022-11-16T10:35:29.798Z,99487.19
2022-11-16T10:38:00.404Z,99490.81
2022-11-16T10:40:35.925Z,99502.19
2022-11-16T10:43:10.671Z,99495.19
2022-11-16T10:45:40.470Z,99505.16
2022-11-16T10:48:25.060Z,99501.56
2022-11-16T10:50:53.150Z,99501.41
2022-11-16T10:53:27.350Z,99502.19
2022-11-16T10:56:10.489Z,99495.31
2022-11-16T10:58:53.882Z,99496.41
2022-11-16T11:01:49.978Z,99492.38
2022-11-16T11:04:22.633Z,99487.47
2022-11-16T11:06:51.773Z,99491.50
2022-11-16T11:09:30.568Z,99489.50
2022-11-16T11:12:19.927Z,99477.09
2022-11-16T11:15:02.243Z,99476.06
2022-11-16T11:17:30.150Z,99475.03
2022-11-16T11:19:59.570Z,99479.38
2022-11-16T11:22:27.168Z,99470.22
2022-11-16T11:24:54.135Z,99469.03
2022-11-16T11:27:31.507Z,99473.00
2022-11-16T11:29:59.391Z,99468.56
2022-11-16T11:32:33.284Z,99466.78
2022-11-16T11:35:01.146Z,99457.66
2022-11-16T11:37:31.843Z,99453.03
2022-11-16T11:40:07.283Z,99452.94
2022-11-16T11:42:38.319Z,99447.31
2022-11-16T11:45:09.342Z,99441.59
2022-11-16T11:48:02.470Z,99433.47
2022-11-16T11:50:51.383Z,99438.88
2022-11-16T11:53:45.640Z,99433.75
2022-11-16T11:56:14.327Z,99442.50
2022-11-16T11:58:43.569Z,99432.56
2022-11-16T12:01:52.093Z,99431.75
2022-11-16T12:05:02.083Z,99423.38
2022-11-16T12:07:46.574Z,99422.88
2022-11-16T12:10:21.820Z,99417.19
2022-11-16T12:13:35.759Z,99415.97
2022-11-16T12:16:13.492Z,99414.66
2022-11-16T12:19:00.336Z,99406.13
2022-11-16T12:21:38.904Z,99408.16
2022-11-16T12:24:15.666Z,99406.81
2022-11-16T12:26:53.473Z,99407.69
2022-11-16T12:29:28.104Z,99419.13
2022-11-16T12:32:17.993Z,99409.13
2022-11-16T12:35:00.396Z,99408.47
2022-11-16T12:37:35.559Z,99421.72
2022-11-16T12:40:31.919Z,99428.44
2022-11-16T12:43:07.500Z,99422.53
2022-11-16T12:46:01.816Z,99421.69
2022-11-16T12:48:59.796Z,99427.22
2022-11-16T12:51:41.675Z,99402.84
2022-11-16T12:54:26.295Z,99408.00
2022-11-16T12:57:04.062Z,99404.88
2022-11-16T12:59:53.125Z,99409.06
2022-11-16T13:02:31.998Z,99404.22
2022-11-16T13:05:05.485Z,99399.94
2022-11-16T13:07:41.383Z,99391.56
2022-11-16T13:10:16.405Z,99401.22
2022-11-16T13:12:45.927Z,99386.47
2022-11-16T13:15:19.247Z,99390.00
2022-11-16T13:17:55.266Z,99389.34
2022-11-16T13:20:33.742Z,99390.16
2022-11-16T13:23:05.103Z,99389.00
2022-11-16T13:25:36.555Z,99391.88
2022-11-16T13:28:12.793Z,99386.28
2022-11-16T13:30:50.397Z,99380.59
2022-11-16T13:33:30.131Z,99379.63
2022-11-16T13:35:58.334Z,99360.78
2022-11-16T13:38:53.916Z,99349.22
2022-11-16T13:41:28.527Z,99360.34
2022-11-16T13:43:55.767Z,99349.97
2022-11-16T13:46:54.184Z,99350.75
2022-11-16T13:49:24.859Z,99353.88
2022-11-16T13:51:56.416Z,99352.25
2022-11-16T13:54:45.409Z,99348.19
2022-11-16T13:57:22.979Z,99327.72
2022-11-16T13:59:56.217Z,99335.31
2022-11-16T14:02:33.847Z,99331.34
2022-11-16T14:05:02.915Z,99319.66
2022-11-16T14:07:43.155Z,99313.22
2022-11-16T14:10:11.554Z,99317.94
2022-11-16T14:12:56.373Z,99317.53
2022-11-16T14:15:28.998Z,99321.06
2022-11-16T14:18:01.725Z,99319.41
2022-11-16T14:20:51.929Z,99310.22
2022-11-16T14:23:31.768Z,99306.97
2022-11-16T14:26:12.491Z,99301.81
2022-11-16T14:28:54.284Z,99301.38
2022-11-16T14:31:24.837Z,99293.41
2022-11-16T14:33:53.563Z,99291.44
2022-11-16T14:36:36.880Z,99303.06
2022-11-16T14:39:29.017Z,99293.44
2022-11-16T14:41:58.819Z,99285.44
2022-11-16T14:44:30.579Z,99281.47
2022-11-16T14:46:57.956Z,99276.63
2022-11-16T14:49:27.564Z,99267.03
2022-11-16T14:51:57.159Z,99263.78
2022-11-16T14:54:30.220Z,99256.63
2022-11-16T14:56:58.943Z,99259.03
2022-11-16T14:59:26.724Z,99256.56
2022-11-16T15:01:53.752Z,99248.06
2022-11-16T15:04:23.428Z,99243.72
2022-11-16T15:06:53.510Z,99232.81
2022-11-16T15:09:24.609Z,99227.63
2022-11-16T15:12:11.643Z,99222.03
2022-11-16T15:14:44.624Z,99219.97
2022-11-16T15:17:16.476Z,99217.94
2022-11-16T15:19:43.421Z,99213.06
2022-11-16T15:22:16.779Z,99204.69
2022-11-16T15:24:43.618Z,99210.19
2022-11-16T15:27:22.990Z,99205.78
2022-11-16T15:29:50.045Z,99197.75
2022-11-16T15:32:17.828Z,99185.78
2022-11-16T15:34:47.818Z,99188.47
2022-11-16T15:37:15.546Z,99188.00
2022-11-16T15:39:43.297Z,99176.78
2022-11-16T15:42:14.764Z,99179.91
2022-11-16T15:44:43.242Z,99192.63
2022-11-16T15:47:13.577Z,99182.22
2022-11-16T15:49:42.593Z,99180.56
2022-11-16T15:52:10.764Z,99169.34
2022-11-16T15:54:56.244Z,99175.72
2022-11-16T15:57:25.431Z,99169.44
2022-11-16T15:59:57.293Z,99165.44
2022-11-16T16:02:29.827Z,99150.31
2022-11-16T16:04:56.677Z,99149.06
2022-11-16T16:07:40.789Z,99143.16
2022-11-16T16:10:25.299Z,99134.72
2022-11-16T16:12:54.793Z,99137.16
2022-11-16T16:15:24.287Z,99129.09
2022-11-16T16:17:53.014Z,99136.75
2022-11-16T16:20:21.819Z,99139.22
2022-11-16T16:22:48.816Z,99133.97
2022-11-16T16:25:30.037Z,99126.78
2022-11-16T16:27:58.894Z,99126.75
2022-11-16T16:30:26.642Z,99129.81
2022-11-16T16:32:53.926Z,99134.63
2022-11-16T16:35:23.107Z,99121.09
2022-11-16T16:37:56.132Z,99121.09
2022-11-16T16:40:23.397Z,99115.16
2022-11-16T16:42:50.970Z,99116.38
2022-11-16T16:45:21.182Z,99110.34
2022-11-16T16:47:48.153Z,99107.56
2022-11-16T16:50:15.531Z,99100.78
2022-11-16T16:52:42.528Z,99090.44
2022-11-16T16:55:09.622Z,99086.84
2022-11-16T16:57:36.460Z,99087.31
2022-11-16T17:00:04.099Z,99082.88
2022-11-16T17:02:32.393Z,99086.47
2022-11-16T17:04:59.196Z,99089.31
2022-11-16T17:07:26.169Z,99086.88
2022-11-16T17:09:53.008Z,99084.44
2022-11-16T17:12:22.115Z,99084.44
2022-11-16T17:14:55.210Z,99080.16
2022-11-16T17:17:24.397Z,99070.91
2022-11-16T17:19:53.033Z,99074.81
2022-11-16T17:28:15.830Z,99072.06
2022-11-16T17:30:42.654Z,99069.19
2022-11-16T17:33:09.479Z,99064.06
2022-11-16T17:35:37.750Z,99080.84
2022-11-16T17:38:04.799Z,99057.72
2022-11-16T17:40:31.588Z,99056.91
2022-11-16T17:42:58.428Z,99064.06
2022-11-16T17:45:25.765Z,99046.94
2022-11-16T17:47:52.578Z,99050.88
2022-11-16T17:50:19.354Z,99056.88
2022-11-16T17:52:47.536Z,99051.69
2022-11-16T17:55:14.661Z,99043.31
2022-11-16T18:00:36.151Z,99036.50
2022-11-16T18:03:02.930Z,99032.56
2022-11-16T18:05:29.925Z,99027.31
2022-11-16T18:22:56.963Z,98981.03
2022-11-16T18:25:24.413Z,98979.13
2022-11-16T18:27:52.747Z,98963.56
2022-11-16T18:30:19.929Z,98954.72
2022-11-16T18:32:47.113Z,98942.34
2022-11-16T18:35:14.343Z,98934.38
2022-11-16T18:37:41.189Z,98928.44
2022-11-16T18:40:12.051Z,98922.84
2022-11-16T18:42:39.990Z,98911.63
2022-11-16T18:45:08.001Z,98908.44
2022-11-16T18:47:34.894Z,98911.22
2022-11-16T18:50:01.907Z,98908.81
2022-11-16T18:52:28.866Z,98906.88
2022-11-16T18:54:55.706Z,98903.63
2022-11-16T18:57:23.802Z,98890.88
2022-11-16T18:59:50.615Z,98885.22
2022-11-16T19:02:17.422Z,98879.69
2022-11-16T19:04:44.248Z,98875.19
2022-11-16T19:07:11.206Z,98877.25
2022-11-16T19:09:38.064Z,98864.03
2022-11-16T19:12:05.324Z,98869.22
2022-11-16T19:14:33.505Z,98857.28
2022-11-16T19:17:01.136Z,98859.66
2022-11-16T19:19:29.224Z,98851.28
2022-11-16T19:21:57.048Z,98840.44
2022-11-16T19:24:24.242Z,98831.69
2022-11-16T19:26:51.980Z,98818.88
2022-11-16T19:29:18.810Z,98801.69
2022-11-16T19:31:47.065Z,98792.16
2022-11-16T19:34:14.651Z,98785.28
2022-11-16T19:36:41.530Z,98763.72
2022-11-16T19:45:17.311Z,98727.81
2022-11-16T20:05:52.737Z,98608.13
2022-11-16T20:17:24.625Z,98547.47
2022-11-16T20:25:46.746Z,98507.56
2022-11-16T20:28:13.549Z,98498.78
2022-11-16T20:30:45.611Z,98480.44
2022-11-16T20:33:13.815Z,98470.88
2022-11-16T20:35:40.807Z,98464.09
2022-11-16T20:38:07.915Z,98443.75
2022-11-16T20:40:34.767Z,98434.16
2022-11-16T20:48:37.532Z,98400.69
2022-11-16T20:51:06.529Z,98383.91
2022-11-16T20:53:34.431Z,98375.16
2022-11-16T20:56:05.005Z,98363.97
2022-11-16T20:58:32.363Z,98351.59
2022-11-16T21:01:00.951Z,98338.75
2022-11-16T21:03:28.273Z,98332.41
2022-11-16T21:05:55.796Z,98321.69
2022-11-16T21:08:25.856Z,98310.06
2022-11-16T21:10:52.970Z,98294.06
2022-11-16T21:13:39.318Z,98290.59
2022-11-16T21:16:08.071Z,98265.00
2022-11-16T21:18:35.149Z,98241.09
2022-11-16T21:21:03.354Z,98239.47
2022-11-16T21:23:33.303Z,98232.63
2022-11-16T21:26:02.542Z,98215.53
2022-11-16T21:28:29.936Z,98212.34
2022-11-16T21:30:57.910Z,98216.34
2022-11-16T21:38:55.309Z,98211.81
2022-11-16T21:41:23.289Z,98184.34
2022-11-16T21:49:17.530Z,98188.72
2022-11-16T21:51:44.348Z,98183.13
2022-11-16T21:54:12.542Z,98171.16
2022-11-16T21:56:39.358Z,98173.16
2022-11-16T21:59:06.170Z,98170.38
2022-11-16T22:01:55.549Z,98174.31
2022-11-16T22:04:40.767Z,98164.75
2022-11-16T22:07:31.832Z,98166.66
2022-11-16T22:10:01.112Z,98155.59
2022-11-16T22:12:28.184Z,98152.69
2022-11-16T22:14:55.184Z,98136.69
2022-11-16T22:17:22.141Z,98130.25
2022-11-16T22:22:34.104Z,98104.25
2022-11-16T22:25:02.309Z,98108.66
2022-11-16T22:36:10.834Z,98083.84
2022-11-16T22:38:38.172Z,98079.00
2022-11-16T22:41:06.463Z,98062.59
2022-11-16T22:43:33.748Z,98042.66
2022-11-16T22:46:03.083Z,98050.63
2022-11-16T22:48:31.183Z,98033.78
2022-11-16T22:51:06.832Z,98024.63
2022-11-16T22:53:34.870Z,98013.88
2022-11-16T22:56:08.695Z,97999.47
2022-11-16T22:58:35.989Z,97983.44
2022-11-16T23:01:02.920Z,97977.84
2022-11-16T23:03:30.151Z,97975.41
2022-11-16T23:05:57.109Z,97974.25
2022-11-16T23:08:24.911Z,97991.25
2022-11-16T23:11:17.777Z,97990.47
2022-11-16T23:14:04.684Z,97977.56
2022-11-16T23:16:31.618Z,97991.09
2022-11-16T23:18:58.486Z,97988.97
2022-11-16T23:21:44.192Z,97990.97
2022-11-16T23:24:30.541Z,97982.94
2022-11-16T23:27:16.939Z,97994.81
2022-11-16T23:29:45.252Z,97992.88
2022-11-16T23:32:12.183Z,97981.31
2022-11-16T23:34:39.025Z,97988.09
2022-11-16T23:37:07.208Z,97981.66
2022-11-16T23:39:34.542Z,97984.84
2022-11-16T23:42:19.782Z,97976.94
2022-11-16T23:44:47.986Z,97963.97
2022-11-16T23:47:14.821Z,97979.97
2022-11-16T23:49:41.823Z,97970.34
2022-11-16T23:52:08.707Z,97973.25
2022-11-16T23:54:35.525Z,97969.22
2022-11-16T23:57:02.431Z,97964.03
2022-11-16T23:59:29.345Z,97945.56
